Time;durP1;ratioP1;P1;durP2;ratioP2;P2;SDS_P1;SDS_P2;PMS_P1;PMS_P2;Temp;Humidity;BMP_temperature;BMP_pressure;BME280_temperature;BME280_humidity;BME280_pressure;Samples;Min_cycle;Max_cycle;Signal;HPM_P1;HPM_P2
2023/07/31 00:01:20;;;;;;;6.72;4.07;;;;;;;;;;5047594;28;20410;-80
2023/07/31 00:03:47;;;;;;;;;;;;;;;;;;5053791;28;20057;-80
2023/07/31 00:06:14;;;;;;;5.53;3.92;;;;;;;;;;5053462;28;20284;-80
2023/07/31 00:08:41;;;;;;;8.40;4.35;;;;;;;;;;5042095;28;20056;-80
2023/07/31 00:11:09;;;;;;;9.20;4.85;;;;;;;;;;5053107;28;20045;-80
2023/07/31 00:13:36;;;;;;;10.25;5.97;;;;;;;;;;5053346;28;20485;-80
2023/07/31 00:16:03;;;;;;;11.35;6.68;;;;;;;;;;5042313;28;20402;-81
2023/07/31 00:18:30;;;;;;;12.35;6.85;;;;;;;;;;5013822;28;20060;-81
2023/07/31 00:20:57;;;;;;;9.93;5.47;;;;;;;;;;5013812;28;20057;-81
2023/07/31 00:23:24;;;;;;;12.73;6.80;;;;;;;;;;5013349;28;20058;-80
2023/07/31 00:25:50;;;;;;;9.07;6.28;;;;;;;;;;5013835;28;20065;-80
2023/07/31 00:28:19;;;;;;;8.30;4.78;;;;;;;;;;5013619;28;20050;-80
2023/07/31 00:30:46;;;;;;;9.90;5.50;;;;;;;;;;5044036;28;20053;-80
2023/07/31 00:33:13;;;;;;;12.40;6.35;;;;;;;;;;5052266;28;20056;-81
2023/07/31 00:35:40;;;;;;;13.77;7.35;;;;;;;;;;5053179;28;20076;-79
2023/07/31 00:38:07;;;;;;;13.07;6.57;;;;;;;;;;5053142;28;20079;-80
2023/07/31 00:40:35;;;;;;;11.55;6.25;;;;;;;;;;5052949;28;20067;-80
2023/07/31 00:43:05;;;;;;;12.75;5.97;;;;;;;;;;5052922;28;20409;-79
2023/07/31 00:45:56;;;;;;;9.32;6.40;;;;;;;;;;5050241;28;20064;-79
2023/07/31 00:54:45;;;;;;;14.05;6.35;;;;;;;;;;5058759;28;20489;-80
2023/07/31 00:57:12;;;;;;;17.02;6.88;;;;;;;;;;5052737;28;20053;-80
2023/07/31 00:59:39;;;;;;;9.95;4.78;;;;;;;;;;5052481;28;20061;-80
2023/07/31 01:02:06;;;;;;;10.35;5.57;;;;;;;;;;5047826;28;20410;-80
2023/07/31 01:04:47;;;;;;;13.07;6.20;;;;;;;;;;4560055;28;22746;-78
2023/07/31 01:07:15;;;;;;;10.98;5.22;;;;;;;;;;4692357;28;20506;-80
2023/07/31 01:09:46;;;;;;;14.20;5.85;;;;;;;;;;5032273;28;20057;-80
2023/07/31 01:12:15;;;;;;;13.07;6.03;;;;;;;;;;5032663;28;20050;-80
2023/07/31 01:14:42;;;;;;;14.85;6.28;;;;;;;;;;5032704;28;20053;-80
2023/07/31 01:17:08;;;;;;;9.30;5.45;;;;;;;;;;5036133;28;20049;-80
2023/07/31 01:19:35;;;;;;;10.23;5.38;;;;;;;;;;5032339;28;20054;-82
2023/07/31 01:22:17;;;;;;;9.90;5.15;;;;;;;;;;5033037;28;20054;-80
2023/07/31 01:24:55;;;;;;;13.18;5.03;;;;;;;;;;5024876;28;20411;-80
2023/07/31 01:27:25;;;;;;;15.10;5.97;;;;;;;;;;5012873;28;20064;-80
2023/07/31 01:29:56;;;;;;;11.55;5.88;;;;;;;;;;5011978;28;20070;-80
2023/07/31 01:32:26;;;;;;;10.73;5.60;;;;;;;;;;5020633;28;20370;-79
2023/07/31 01:34:53;;;;;;;12.52;5.45;;;;;;;;;;5012652;28;20065;-80
2023/07/31 01:37:20;;;;;;;9.90;5.20;;;;;;;;;;5013004;28;20061;-80
2023/07/31 01:39:46;;;;;;;10.70;4.88;;;;;;;;;;5014473;28;20141;-80
2023/07/31 01:42:16;;;;;;;12.82;5.20;;;;;;;;;;5034187;28;20413;-80
2023/07/31 01:44:44;;;;;;;9.35;4.95;;;;;;;;;;5052155;28;20135;-80
2023/07/31 01:47:11;;;;;;;11.10;4.57;;;;;;;;;;5047171;28;20109;-81
2023/07/31 01:49:38;;;;;;;9.48;4.82;;;;;;;;;;5051702;28;20057;-80
2023/07/31 01:52:05;;;;;;;11.93;4.50;;;;;;;;;;5051850;28;20061;-80
2023/07/31 01:54:33;;;;;;;10.70;4.75;;;;;;;;;;5051733;28;20053;-80
2023/07/31 01:57:00;;;;;;;9.35;4.40;;;;;;;;;;5052135;28;20044;-80
2023/07/31 01:59:27;;;;;;;8.77;4.45;;;;;;;;;;5052223;28;20060;-80
2023/07/31 02:01:55;;;;;;;9.88;3.80;;;;;;;;;;5038998;28;20478;-80
2023/07/31 02:04:22;;;;;;;10.05;4.70;;;;;;;;;;5014565;28;20058;-79
2023/07/31 02:06:48;;;;;;;10.25;4.85;;;;;;;;;;5048638;28;20057;-81
2023/07/31 02:09:15;;;;;;;7.15;4.32;;;;;;;;;;5030647;28;20051;-80
2023/07/31 02:11:45;;;;;;;9.27;4.72;;;;;;;;;;5031856;28;20049;-80
2023/07/31 02:14:27;;;;;;;7.53;4.40;;;;;;;;;;5032278;28;20133;-81
2023/07/31 02:16:58;;;;;;;9.77;4.07;;;;;;;;;;5028658;28;20121;-80
2023/07/31 02:19:25;;;;;;;7.85;4.00;;;;;;;;;;5051104;28;20410;-81
2023/07/31 02:21:52;;;;;;;11.55;4.82;;;;;;;;;;5053241;28;20478;-80
2023/07/31 02:24:19;;;;;;;9.68;4.03;;;;;;;;;;5055862;28;20060;-80
2023/07/31 02:26:45;;;;;;;7.28;3.75;;;;;;;;;;5055295;28;20383;-81
2023/07/31 02:29:12;;;;;;;8.05;4.20;;;;;;;;;;5055610;28;20508;-80
2023/07/31 02:31:39;;;;;;;8.65;4.07;;;;;;;;;;5054447;28;20501;-79
2023/07/31 02:34:07;;;;;;;10.77;4.05;;;;;;;;;;5044274;28;20504;-81
2023/07/31 02:36:34;;;;;;;11.05;4.72;;;;;;;;;;5055183;28;20053;-81
2023/07/31 02:39:00;;;;;;;9.13;3.85;;;;;;;;;;5055279;28;20057;-81
2023/07/31 02:41:27;;;;;;;6.93;3.60;;;;;;;;;;5054965;28;20072;-80
2023/07/31 02:43:54;;;;;;;8.43;4.68;;;;;;;;;;5055079;28;20393;-81
2023/07/31 02:46:24;;;;;;;6.22;3.88;;;;;;;;;;5055063;28;20057;-80
2023/07/31 02:48:50;;;;;;;8.70;3.55;;;;;;;;;;5037051;28;20064;-81
2023/07/31 02:51:21;;;;;;;7.53;3.88;;;;;;;;;;5035001;28;20506;-80
2023/07/31 02:53:47;;;;;;;7.50;4.50;;;;;;;;;;5035417;28;20076;-81
2023/07/31 02:56:14;;;;;;;8.45;4.82;;;;;;;;;;5034948;28;20080;-80
2023/07/31 02:58:41;;;;;;;9.93;4.38;;;;;;;;;;5036087;28;20054;-81
2023/07/31 03:01:08;;;;;;;7.70;3.78;;;;;;;;;;5035598;28;20057;-81
2023/07/31 03:03:35;;;;;;;12.95;4.43;;;;;;;;;;5020266;28;20053;-79
2023/07/31 03:06:01;;;;;;;8.40;3.72;;;;;;;;;;5056017;28;20061;-80
2023/07/31 03:08:29;;;;;;;10.77;4.57;;;;;;;;;;5039422;28;20523;-80
2023/07/31 03:10:57;;;;;;;9.02;4.10;;;;;;;;;;5034980;28;20061;-81
2023/07/31 03:13:24;;;;;;;8.80;4.00;;;;;;;;;;5034483;28;20060;-80
2023/07/31 03:15:51;;;;;;;8.93;3.90;;;;;;;;;;5034707;28;20053;-81
2023/07/31 03:18:18;;;;;;;10.95;4.50;;;;;;;;;;5040648;28;20045;-80
2023/07/31 03:20:44;;;;;;;11.25;4.93;;;;;;;;;;5054194;28;20531;-80
2023/07/31 03:23:11;;;;;;;10.85;5.18;;;;;;;;;;5054471;28;20053;-80
2023/07/31 03:25:40;;;;;;;8.60;4.38;;;;;;;;;;5054109;28;20064;-81
2023/07/31 03:28:07;;;;;;;8.77;4.47;;;;;;;;;;5054358;28;20397;-81
2023/07/31 03:30:36;;;;;;;8.07;4.25;;;;;;;;;;5054172;28;20477;-81
2023/07/31 03:33:03;;;;;;;;;;;;;;;;;;5047981;28;20053;-80
2023/07/31 03:35:30;;;;;;;12.05;4.63;;;;;;;;;;5054371;28;19921;-80
2023/07/31 03:37:56;;;;;;;9.73;4.63;;;;;;;;;;5054305;28;20402;-81
2023/07/31 03:40:23;;;;;;;11.90;4.72;;;;;;;;;;5053929;28;20052;-80
2023/07/31 03:42:51;;;;;;;11.32;4.05;;;;;;;;;;5053954;28;20045;-80
2023/07/31 03:45:18;;;;;;;10.98;4.43;;;;;;;;;;5054272;28;20052;-80
2023/07/31 03:47:45;;;;;;;9.38;4.40;;;;;;;;;;5047915;28;20057;-80
2023/07/31 03:50:11;;;;;;;10.00;4.18;;;;;;;;;;5053963;28;20064;-81
2023/07/31 03:52:38;;;;;;;8.38;3.92;;;;;;;;;;5053458;28;20048;-80
2023/07/31 03:55:08;;;;;;;10.77;4.95;;;;;;;;;;5053803;28;20056;-80
2023/07/31 03:57:35;;;;;;;8.10;3.83;;;;;;;;;;5053655;28;20053;-80
2023/07/31 04:00:03;;;;;;;5.88;3.47;;;;;;;;;;5053211;28;20064;-80
2023/07/31 04:02:30;;;;;;;9.45;4.45;;;;;;;;;;5035785;28;20050;-81
2023/07/31 04:04:57;;;;;;;8.88;4.43;;;;;;;;;;5034564;28;20060;-80
2023/07/31 04:07:24;;;;;;;10.52;4.43;;;;;;;;;;5021060;28;20064;-80
2023/07/31 04:09:50;;;;;;;9.57;4.40;;;;;;;;;;5047592;28;20394;-81
2023/07/31 04:12:17;;;;;;;9.45;4.20;;;;;;;;;;5053208;28;20409;-80
2023/07/31 04:14:44;;;;;;;10.13;4.13;;;;;;;;;;5047854;28;20052;-81
2023/07/31 04:17:12;;;;;;;7.47;4.22;;;;;;;;;;5047945;28;20049;-80
2023/07/31 04:19:39;;;;;;;8.10;4.18;;;;;;;;;;5052084;28;20053;-80
2023/07/31 04:22:06;;;;;;;9.27;4.25;;;;;;;;;;5038460;28;20053;-80
2023/07/31 04:24:32;;;;;;;8.57;3.92;;;;;;;;;;5035159;28;20401;-81
2023/07/31 04:26:59;;;;;;;6.97;4.07;;;;;;;;;;5053123;28;20401;-81
2023/07/31 04:29:26;;;;;;;7.97;4.25;;;;;;;;;;5053042;28;20393;-80
2023/07/31 04:31:53;;;;;;;8.38;4.38;;;;;;;;;;5047502;28;20055;-80
2023/07/31 04:34:21;;;;;;;9.50;4.38;;;;;;;;;;5048934;28;20059;-80
2023/07/31 04:36:48;;;;;;;10.25;4.45;;;;;;;;;;5051790;28;20057;-81
2023/07/31 04:39:14;;;;;;;8.98;4.47;;;;;;;;;;5049767;28;20049;-81
2023/07/31 04:41:41;;;;;;;8.88;4.22;;;;;;;;;;5052916;28;20060;-81
2023/07/31 04:44:08;;;;;;;6.90;4.38;;;;;;;;;;5052910;28;20045;-80
2023/07/31 04:46:35;;;;;;;8.57;4.00;;;;;;;;;;5043552;28;20094;-80
2023/07/31 04:49:02;;;;;;;8.82;3.97;;;;;;;;;;5052701;28;20053;-81
2023/07/31 04:51:30;;;;;;;10.00;4.90;;;;;;;;;;5050182;28;20060;-80
2023/07/31 04:53:57;;;;;;;8.45;4.50;;;;;;;;;;5052836;28;20053;-81
2023/07/31 04:56:24;;;;;;;9.32;4.30;;;;;;;;;;5052685;28;20055;-80
2023/07/31 04:58:51;;;;;;;7.82;3.97;;;;;;;;;;5052888;28;20060;-80
2023/07/31 05:01:17;;;;;;;7.53;4.20;;;;;;;;;;5052903;28;20060;-81
2023/07/31 05:03:44;;;;;;;10.93;4.45;;;;;;;;;;5046313;28;20052;-80
2023/07/31 05:06:12;;;;;;;9.00;4.35;;;;;;;;;;5052085;28;20079;-80
2023/07/31 05:08:40;;;;;;;7.97;4.20;;;;;;;;;;5035012;28;20364;-80
2023/07/31 05:11:07;;;;;;;8.60;4.07;;;;;;;;;;5032879;28;20061;-80
2023/07/31 05:13:33;;;;;;;8.63;4.55;;;;;;;;;;5032065;28;20052;-80
2023/07/31 05:16:00;;;;;;;8.50;4.32;;;;;;;;;;5032097;28;20057;-80
2023/07/31 05:18:27;;;;;;;8.18;4.10;;;;;;;;;;5041408;28;20370;-80
2023/07/31 05:20:54;;;;;;;8.57;4.38;;;;;;;;;;5052259;28;20060;-80
2023/07/31 05:23:21;;;;;;;8.88;4.85;;;;;;;;;;5052266;28;20477;-81
2023/07/31 05:25:49;;;;;;;9.30;4.55;;;;;;;;;;5052246;28;20053;-81
2023/07/31 05:28:15;;;;;;;10.88;4.60;;;;;;;;;;5052716;28;20064;-80
2023/07/31 05:30:42;;;;;;;6.88;4.38;;;;;;;;;;5052194;28;20478;-81
2023/07/31 05:33:09;;;;;;;7.65;4.00;;;;;;;;;;5035246;28;20482;-80
2023/07/31 05:35:36;;;;;;;8.02;4.25;;;;;;;;;;5012796;28;20381;-81
2023/07/31 05:38:02;;;;;;;7.50;4.60;;;;;;;;;;5012675;28;20070;-80
2023/07/31 05:40:29;;;;;;;7.53;5.00;;;;;;;;;;5012835;28;20054;-81
2023/07/31 05:42:57;;;;;;;8.02;4.03;;;;;;;;;;5041226;28;20057;-80
2023/07/31 05:45:25;;;;;;;10.07;4.78;;;;;;;;;;5012164;28;20487;-81
2023/07/31 05:47:52;;;;;;;7.93;4.20;;;;;;;;;;5025702;28;20470;-81
2023/07/31 05:50:19;;;;;;;8.38;5.32;;;;;;;;;;5050930;28;20057;-80
2023/07/31 05:52:46;;;;;;;6.75;4.43;;;;;;;;;;5051687;28;20064;-81
2023/07/31 05:55:12;;;;;;;6.68;4.18;;;;;;;;;;5051768;28;20045;-80
2023/07/31 05:57:39;;;;;;;9.15;5.38;;;;;;;;;;5042242;28;20076;-80
2023/07/31 06:00:08;;;;;;;10.48;5.70;;;;;;;;;;5037783;28;20422;-80
2023/07/31 06:02:36;;;;;;;10.25;4.57;;;;;;;;;;5048843;28;20049;-80
2023/07/31 06:05:03;;;;;;;7.68;4.70;;;;;;;;;;5055849;28;20059;-80
2023/07/31 06:07:30;;;;;;;8.48;4.60;;;;;;;;;;5055224;28;20052;-80
2023/07/31 06:10:01;;;;;;;8.90;5.28;;;;;;;;;;5055436;28;20049;-81
2023/07/31 06:12:28;;;;;;;6.75;4.45;;;;;;;;;;5054485;28;20087;-80
2023/07/31 06:14:55;;;;;;;10.15;4.90;;;;;;;;;;5055600;28;20045;-81
2023/07/31 06:17:24;;;;;;;8.50;4.93;;;;;;;;;;5052071;28;20048;-80
2023/07/31 06:19:51;;;;;;;7.45;5.00;;;;;;;;;;5015872;28;20054;-81
2023/07/31 06:22:18;;;;;;;9.18;4.60;;;;;;;;;;5015636;28;20058;-80
2023/07/31 06:24:45;;;;;;;8.43;5.13;;;;;;;;;;5015935;28;20387;-81
2023/07/31 06:27:12;;;;;;;8.55;4.50;;;;;;;;;;5015445;28;20064;-81
2023/07/31 06:29:38;;;;;;;8.35;4.65;;;;;;;;;;5015855;28;20054;-80
2023/07/31 06:32:05;;;;;;;5.80;4.82;;;;;;;;;;5014925;28;20057;-79
2023/07/31 06:34:33;;;;;;;10.80;5.15;;;;;;;;;;5052021;28;20053;-80
2023/07/31 06:37:01;;;;;;;6.25;4.18;;;;;;;;;;5054987;28;20064;-81
2023/07/31 06:39:27;;;;;;;6.82;4.50;;;;;;;;;;5042045;28;20064;-80
2023/07/31 06:41:54;;;;;;;8.38;4.95;;;;;;;;;;5027418;28;20050;-80
2023/07/31 06:44:21;;;;;;;7.82;4.70;;;;;;;;;;5028887;28;20068;-80
2023/07/31 06:46:48;;;;;;;7.68;4.35;;;;;;;;;;5035574;28;20057;-82
2023/07/31 06:49:15;;;;;;;12.90;5.47;;;;;;;;;;5027701;28;20627;-85
2023/07/31 06:51:45;;;;;;;7.30;4.90;;;;;;;;;;5031365;28;20061;-85
2023/07/31 06:54:11;;;;;;;8.15;5.32;;;;;;;;;;5026071;28;20054;-84
2023/07/31 06:56:38;;;;;;;10.40;5.28;;;;;;;;;;5032133;28;20053;-84
2023/07/31 06:59:05;;;;;;;7.25;4.70;;;;;;;;;;5034321;28;20065;-85
2023/07/31 07:01:32;;;;;;;12.85;5.35;;;;;;;;;;5029794;28;20057;-82
2023/07/31 07:03:58;;;;;;;7.05;4.47;;;;;;;;;;5025998;28;20065;-84
2023/07/31 07:06:25;;;;;;;6.75;3.90;;;;;;;;;;5027774;28;20073;-84
2023/07/31 07:08:53;;;;;;;8.05;4.35;;;;;;;;;;5033215;28;20061;-84
2023/07/31 07:11:20;;;;;;;8.80;4.13;;;;;;;;;;5028668;28;20422;-84
2023/07/31 07:13:47;;;;;;;6.00;4.28;;;;;;;;;;5031123;28;20073;-84
2023/07/31 07:16:14;;;;;;;5.38;3.40;;;;;;;;;;5028185;28;20390;-84
2023/07/31 07:18:41;;;;;;;6.18;3.90;;;;;;;;;;5026907;28;20049;-85
2023/07/31 07:21:08;;;;;;;7.35;4.00;;;;;;;;;;5034761;28;20060;-85
2023/07/31 07:23:35;;;;;;;8.23;4.10;;;;;;;;;;5031316;28;20488;-81
2023/07/31 07:26:03;;;;;;;6.88;3.75;;;;;;;;;;5029138;28;20053;-85
2023/07/31 07:28:30;;;;;;;8.32;3.80;;;;;;;;;;5032155;28;20054;-85
2023/07/31 07:30:58;;;;;;;6.32;4.20;;;;;;;;;;5031218;28;20056;-85
2023/07/31 07:33:24;;;;;;;6.75;4.05;;;;;;;;;;5027325;28;20065;-85
2023/07/31 07:35:51;;;;;;;6.97;3.35;;;;;;;;;;5033398;28;20065;-84
2023/07/31 07:38:19;;;;;;;7.13;3.85;;;;;;;;;;5032680;28;20371;-84
2023/07/31 07:40:46;;;;;;;5.57;4.00;;;;;;;;;;5029514;28;20921;-85
2023/07/31 07:43:14;;;;;;;7.30;4.40;;;;;;;;;;5028964;28;20505;-85
2023/07/31 07:45:41;;;;;;;5.25;3.67;;;;;;;;;;5032647;28;20048;-84
2023/07/31 07:48:08;;;;;;;7.30;3.33;;;;;;;;;;5027243;28;20057;-84
2023/07/31 07:50:35;;;;;;;7.13;4.00;;;;;;;;;;5031753;28;20064;-81
2023/07/31 07:53:01;;;;;;;5.45;3.40;;;;;;;;;;5028599;28;20057;-84
2023/07/31 07:55:28;;;;;;;9.15;5.10;;;;;;;;;;5032730;28;20049;-87
2023/07/31 07:57:56;;;;;;;6.20;3.88;;;;;;;;;;5030451;28;20079;-85
2023/07/31 08:00:24;;;;;;;8.52;4.97;;;;;;;;;;5029643;28;20139;-85
2023/07/31 08:02:51;;;;;;;11.35;5.82;;;;;;;;;;5029857;28;20053;-85
2023/07/31 08:05:18;;;;;;;13.02;6.18;;;;;;;;;;5035312;28;20045;-84
2023/07/31 08:07:45;;;;;;;14.95;7.78;;;;;;;;;;5031294;28;20058;-87
2023/07/31 08:10:11;;;;;;;13.48;6.88;;;;;;;;;;5029945;28;20048;-85
2023/07/31 08:12:38;;;;;;;15.45;7.85;;;;;;;;;;5027853;28;20049;-83
2023/07/31 08:15:06;;;;;;;12.35;7.03;;;;;;;;;;5027411;28;20053;-81
2023/07/31 08:17:34;;;;;;;10.55;6.00;;;;;;;;;;5028474;28;20061;-82
2023/07/31 08:20:01;;;;;;;11.65;6.82;;;;;;;;;;5030018;28;20072;-85
2023/07/31 08:22:27;;;;;;;12.57;7.15;;;;;;;;;;5030360;28;20060;-84
2023/07/31 08:24:54;;;;;;;9.80;5.40;;;;;;;;;;5028000;28;20098;-85
2023/07/31 08:27:21;;;;;;;9.63;5.20;;;;;;;;;;5028845;28;20068;-84
2023/07/31 08:29:48;;;;;;;11.50;5.47;;;;;;;;;;5030197;28;20418;-83
2023/07/31 08:32:14;;;;;;;10.55;6.70;;;;;;;;;;5028605;28;20049;-83
2023/07/31 08:34:43;;;;;;;11.80;6.60;;;;;;;;;;5029643;28;20050;-83
2023/07/31 08:37:11;;;;;;;10.05;5.72;;;;;;;;;;5030926;28;20057;-83
2023/07/31 08:39:39;;;;;;;10.70;5.43;;;;;;;;;;5028482;28;20070;-81
2023/07/31 08:42:08;;;;;;;6.15;3.92;;;;;;;;;;5028723;28;20057;-82
2023/07/31 08:44:37;;;;;;;6.05;3.40;;;;;;;;;;5029245;28;20073;-80
2023/07/31 08:47:04;;;;;;;5.75;3.78;;;;;;;;;;5031754;28;20060;-81
2023/07/31 08:49:31;;;;;;;6.00;3.58;;;;;;;;;;5026284;28;20065;-83
2023/07/31 08:51:59;;;;;;;5.72;3.33;;;;;;;;;;5026081;28;20057;-83
2023/07/31 08:54:30;;;;;;;5.03;3.28;;;;;;;;;;5012987;28;20057;-84
2023/07/31 08:56:59;;;;;;;4.72;2.70;;;;;;;;;;5031049;28;20419;-85
2023/07/31 08:59:27;;;;;;;3.95;2.92;;;;;;;;;;5029232;28;20068;-85
2023/07/31 09:01:56;;;;;;;4.28;2.42;;;;;;;;;;5030210;28;20061;-83
2023/07/31 09:04:23;;;;;;;4.55;2.72;;;;;;;;;;5029227;28;20065;-84
2023/07/31 09:06:50;;;;;;;5.80;3.10;;;;;;;;;;5027379;28;20057;-85
2023/07/31 09:09:20;;;;;;;4.57;2.78;;;;;;;;;;5028242;28;20046;-84
2023/07/31 09:11:47;;;;;;;3.35;2.35;;;;;;;;;;5025531;28;20053;-84
2023/07/31 09:14:15;;;;;;;3.33;2.38;;;;;;;;;;5030763;28;20421;-78
2023/07/31 09:16:52;;;;;;;3.70;2.40;;;;;;;;;;5029895;28;20049;-76
2023/07/31 09:19:25;;;;;;;4.18;2.60;;;;;;;;;;5026823;28;20049;-84
2023/07/31 09:21:52;;;;;;;2.95;2.22;;;;;;;;;;5027049;28;20418;-86
2023/07/31 09:24:27;;;;;;;3.83;2.10;;;;;;;;;;5028156;28;20061;-84
2023/07/31 09:26:54;;;;;;;4.40;2.20;;;;;;;;;;5027164;28;20061;-85
2023/07/31 09:29:21;;;;;;;4.70;2.20;;;;;;;;;;5029447;28;20062;-83
2023/07/31 09:31:48;;;;;;;3.05;1.80;;;;;;;;;;5030120;28;20057;-84
2023/07/31 09:34:15;;;;;;;3.17;2.05;;;;;;;;;;5034451;28;20057;-86
2023/07/31 09:36:42;;;;;;;3.67;2.40;;;;;;;;;;5035105;28;20408;-85
2023/07/31 09:39:10;;;;;;;3.50;2.10;;;;;;;;;;5035405;28;20080;-85
2023/07/31 09:41:39;;;;;;;4.63;2.20;;;;;;;;;;5033840;28;20455;-83
2023/07/31 09:44:06;;;;;;;4.10;2.50;;;;;;;;;;5031051;28;20060;-82
2023/07/31 09:46:35;;;;;;;4.45;2.30;;;;;;;;;;5036254;28;20053;-81
2023/07/31 09:49:06;;;;;;;3.72;2.60;;;;;;;;;;5035128;28;20056;-84
2023/07/31 09:51:37;;;;;;;4.90;2.67;;;;;;;;;;5032573;28;20072;-80
2023/07/31 09:54:13;;;;;;;3.80;2.53;;;;;;;;;;5028292;28;20053;-81
2023/07/31 09:56:45;;;;;;;4.82;2.72;;;;;;;;;;5034474;28;20060;-85
2023/07/31 09:59:12;;;;;;;6.57;2.88;;;;;;;;;;5036946;28;20041;-83
2023/07/31 10:01:40;;;;;;;4.57;2.60;;;;;;;;;;5033032;28;20057;-84
2023/07/31 10:04:08;;;;;;;4.30;2.90;;;;;;;;;;5035027;28;20053;-83
2023/07/31 10:06:35;;;;;;;5.72;2.90;;;;;;;;;;5035593;28;20072;-82
2023/07/31 10:09:03;;;;;;;3.53;2.60;;;;;;;;;;5034563;28;20045;-79
2023/07/31 10:11:31;;;;;;;3.90;2.78;;;;;;;;;;5033414;28;20060;-83
2023/07/31 10:13:59;;;;;;;4.38;2.58;;;;;;;;;;5035160;28;20057;-83
2023/07/31 10:16:26;;;;;;;4.38;2.33;;;;;;;;;;5035002;28;20057;-83
2023/07/31 10:18:54;;;;;;;3.72;2.35;;;;;;;;;;5035853;28;20057;-84
2023/07/31 10:21:21;;;;;;;3.22;2.13;;;;;;;;;;5033371;28;20156;-84
2023/07/31 10:23:48;;;;;;;3.65;2.38;;;;;;;;;;5032873;28;20065;-83
2023/07/31 10:26:18;;;;;;;3.53;2.30;;;;;;;;;;5035796;28;20463;-83
2023/07/31 10:28:45;;;;;;;3.20;1.90;;;;;;;;;;5034849;28;20410;-78
2023/07/31 10:31:13;;;;;;;3.08;1.80;;;;;;;;;;5030730;28;20060;-77
2023/07/31 10:33:41;;;;;;;3.83;1.80;;;;;;;;;;5033248;28;20049;-78
2023/07/31 10:36:18;;;;;;;3.95;2.40;;;;;;;;;;5028699;28;20833;-77
2023/07/31 10:38:45;;;;;;;2.78;1.85;;;;;;;;;;5030915;28;20053;-76
2023/07/31 10:41:11;;;;;;;3.83;1.70;;;;;;;;;;5033926;28;20068;-76
2023/07/31 10:43:39;;;;;;;2.60;1.60;;;;;;;;;;5029637;28;20486;-77
2023/07/31 10:46:09;;;;;;;2.35;1.73;;;;;;;;;;5024411;28;20072;-78
2023/07/31 10:48:38;;;;;;;2.25;1.77;;;;;;;;;;5026827;28;20053;-79
2023/07/31 10:51:08;;;;;;;3.22;2.10;;;;;;;;;;5027962;28;20524;-79
2023/07/31 10:53:34;;;;;;;2.38;1.77;;;;;;;;;;5025789;28;20411;-79
2023/07/31 10:56:01;;;;;;;2.80;2.00;;;;;;;;;;5028236;28;20053;-78
2023/07/31 10:58:28;;;;;;;2.50;2.00;;;;;;;;;;5032016;28;20123;-79
2023/07/31 11:00:56;;;;;;;3.65;2.25;;;;;;;;;;5032120;28;20061;-78
2023/07/31 11:03:26;;;;;;;2.60;2.03;;;;;;;;;;5031965;28;20595;-80
2023/07/31 11:05:53;;;;;;;;;;;;;;;;;;5033011;28;20057;-81
2023/07/31 11:08:23;;;;;;;3.80;2.10;;;;;;;;;;5035525;28;19921;-81
2023/07/31 11:10:51;;;;;;;3.05;2.08;;;;;;;;;;5026942;28;20046;-79
2023/07/31 11:13:21;;;;;;;3.47;1.83;;;;;;;;;;5030353;28;20061;-79
2023/07/31 11:15:47;;;;;;;3.05;2.10;;;;;;;;;;5027000;28;20065;-77
2023/07/31 11:18:16;;;;;;;3.13;1.92;;;;;;;;;;5032849;28;20054;-78
2023/07/31 11:20:43;;;;;;;2.70;2.17;;;;;;;;;;5032998;28;20045;-78
2023/07/31 11:23:11;;;;;;;2.30;2.00;;;;;;;;;;5031182;28;20057;-82
2023/07/31 11:25:41;;;;;;;2.47;1.60;;;;;;;;;;5029749;28;20049;-82
2023/07/31 11:28:10;;;;;;;2.50;1.73;;;;;;;;;;5029623;28;20057;-84
2023/07/31 11:30:37;;;;;;;2.42;1.92;;;;;;;;;;5026437;28;20067;-81
2023/07/31 11:33:06;;;;;;;2.80;1.90;;;;;;;;;;5029271;28;20053;-81
2023/07/31 11:35:33;;;;;;;3.05;2.15;;;;;;;;;;5029494;28;20053;-81
2023/07/31 11:38:00;;;;;;;3.22;2.28;;;;;;;;;;5030329;28;20057;-84
2023/07/31 11:40:29;;;;;;;3.42;2.20;;;;;;;;;;5031487;28;20056;-84
2023/07/31 11:42:58;;;;;;;3.20;2.17;;;;;;;;;;5029681;28;20068;-83
2023/07/31 11:45:26;;;;;;;3.92;2.42;;;;;;;;;;5031687;28;20057;-83
2023/07/31 11:47:54;;;;;;;3.40;2.20;;;;;;;;;;5029000;28;20053;-84
2023/07/31 11:50:21;;;;;;;3.58;2.33;;;;;;;;;;5028325;28;20061;-84
2023/07/31 11:52:50;;;;;;;2.58;2.00;;;;;;;;;;5027021;28;20521;-84
2023/07/31 11:55:17;;;;;;;3.90;2.50;;;;;;;;;;5027544;28;20498;-84
2023/07/31 11:57:45;;;;;;;3.63;2.20;;;;;;;;;;5025251;28;20050;-83
2023/07/31 12:00:14;;;;;;;3.45;2.47;;;;;;;;;;5028631;28;20741;-83
2023/07/31 12:02:41;;;;;;;5.18;2.25;;;;;;;;;;5030184;28;20049;-82
2023/07/31 12:05:11;;;;;;;3.83;2.65;;;;;;;;;;5029293;28;20080;-82
2023/07/31 12:07:47;;;;;;;3.65;2.45;;;;;;;;;;5030146;28;20061;-79
2023/07/31 12:10:24;;;;;;;5.00;3.20;;;;;;;;;;5028812;28;20054;-78
2023/07/31 12:12:56;;;;;;;5.82;2.70;;;;;;;;;;5025719;28;20147;-79
2023/07/31 12:15:29;;;;;;;4.57;2.65;;;;;;;;;;5027808;28;20057;-78
2023/07/31 12:17:56;;;;;;;3.13;2.58;;;;;;;;;;5030568;28;20049;-76
2023/07/31 12:20:23;;;;;;;5.53;2.50;;;;;;;;;;5026690;28;20061;-77
2023/07/31 12:22:50;;;;;;;3.55;2.70;;;;;;;;;;5028627;28;20128;-78
2023/07/31 12:25:17;;;;;;;3.97;2.75;;;;;;;;;;5028848;28;20426;-75
2023/07/31 12:27:45;;;;;;;6.88;2.60;;;;;;;;;;5023302;28;20474;-76
2023/07/31 12:33:06;;;;;;;3.75;2.35;;;;;;;;;;5117490;27;21271;-61
2023/07/31 12:35:37;;;;;;;3.22;2.13;;;;;;;;;;5122420;27;20047;-62
2023/07/31 12:38:04;;;;;;;4.00;2.20;;;;;;;;;;5121682;28;20070;-62
2023/07/31 12:40:31;;;;;;;3.00;2.00;;;;;;;;;;5116700;27;20047;-61
2023/07/31 12:42:58;;;;;;;3.35;2.15;;;;;;;;;;5119386;27;20506;-62
2023/07/31 12:45:24;;;;;;;2.85;1.85;;;;;;;;;;5116511;27;20082;-62
2023/07/31 12:47:51;;;;;;;3.25;1.90;;;;;;;;;;5120211;27;20050;-63
2023/07/31 12:50:19;;;;;;;3.80;2.40;;;;;;;;;;5120921;27;20043;-60
2023/07/31 12:52:46;;;;;;;4.07;1.75;;;;;;;;;;5118265;28;20060;-61
2023/07/31 12:55:13;;;;;;;3.22;1.70;;;;;;;;;;5118157;27;20059;-60
2023/07/31 12:57:40;;;;;;;3.08;1.92;;;;;;;;;;5121547;27;20051;-61
2023/07/31 13:00:08;;;;;;;4.10;1.80;;;;;;;;;;5119315;27;20059;-60
2023/07/31 13:02:34;;;;;;;3.70;1.88;;;;;;;;;;5115735;27;20044;-62
2023/07/31 13:05:01;;;;;;;2.45;1.88;;;;;;;;;;5121669;27;20416;-63
2023/07/31 13:07:29;;;;;;;2.85;1.90;;;;;;;;;;5096141;27;20416;-61
2023/07/31 13:09:56;;;;;;;2.92;1.70;;;;;;;;;;5086979;28;20060;-62
2023/07/31 13:12:23;;;;;;;2.67;2.00;;;;;;;;;;5088982;28;20078;-62
2023/07/31 13:14:49;;;;;;;2.83;1.95;;;;;;;;;;5097737;28;20052;-63
2023/07/31 13:17:16;;;;;;;3.85;2.17;;;;;;;;;;5091872;28;20059;-62
2023/07/31 13:19:43;;;;;;;3.33;1.80;;;;;;;;;;5094065;28;20051;-59
2023/07/31 13:22:10;;;;;;;2.22;1.48;;;;;;;;;;5090155;28;20174;-59
2023/07/31 13:24:38;;;;;;;2.83;1.50;;;;;;;;;;5099855;28;20056;-60
2023/07/31 13:27:05;;;;;;;2.70;1.75;;;;;;;;;;5099316;28;20522;-60
2023/07/31 13:29:32;;;;;;;2.33;1.40;;;;;;;;;;5097059;28;20503;-60
2023/07/31 13:31:59;;;;;;;3.40;1.58;;;;;;;;;;5092083;28;20508;-59
2023/07/31 13:34:25;;;;;;;2.00;1.52;;;;;;;;;;5096446;28;20083;-59
2023/07/31 13:36:52;;;;;;;2.03;1.55;;;;;;;;;;5098216;28;20058;-59
2023/07/31 13:39:19;;;;;;;2.53;1.98;;;;;;;;;;5096581;28;20058;-63
2023/07/31 13:41:47;;;;;;;2.00;1.27;;;;;;;;;;5098202;28;20051;-63
2023/07/31 13:44:15;;;;;;;2.50;1.20;;;;;;;;;;5082992;28;20106;-63
2023/07/31 13:46:41;;;;;;;1.85;1.23;;;;;;;;;;5081246;28;20393;-62
2023/07/31 13:49:08;;;;;;;2.00;1.35;;;;;;;;;;5078397;28;20353;-62
2023/07/31 13:51:35;;;;;;;2.90;1.48;;;;;;;;;;5086768;28;20044;-62
2023/07/31 13:54:02;;;;;;;2.00;1.40;;;;;;;;;;5082761;28;20067;-63
2023/07/31 13:56:28;;;;;;;2.25;1.50;;;;;;;;;;5085308;28;20048;-63
2023/07/31 13:58:57;;;;;;;2.38;1.67;;;;;;;;;;5087086;28;20063;-63
2023/07/31 14:01:24;;;;;;;3.55;1.42;;;;;;;;;;5079985;28;20477;-63
2023/07/31 14:03:50;;;;;;;2.33;1.42;;;;;;;;;;5077256;28;20431;-63
2023/07/31 14:06:17;;;;;;;3.58;1.88;;;;;;;;;;5077057;28;20063;-64
2023/07/31 14:08:44;;;;;;;2.50;1.70;;;;;;;;;;5075070;28;20052;-63
2023/07/31 14:11:11;;;;;;;4.30;2.00;;;;;;;;;;5080879;28;20071;-63
2023/07/31 14:13:37;;;;;;;2.83;1.80;;;;;;;;;;5081294;28;20385;-62
2023/07/31 14:16:06;;;;;;;2.88;2.40;;;;;;;;;;5084967;28;20063;-62
2023/07/31 14:18:33;;;;;;;3.70;2.17;;;;;;;;;;5078571;28;20079;-63
2023/07/31 14:20:59;;;;;;;2.60;2.13;;;;;;;;;;5079533;28;20408;-63
2023/07/31 14:23:26;;;;;;;3.42;2.28;;;;;;;;;;5088830;28;20048;-60
2023/07/31 14:25:53;;;;;;;4.80;2.40;;;;;;;;;;5080604;28;21629;-60
2023/07/31 14:28:23;;;;;;;3.67;2.70;;;;;;;;;;5088442;28;20054;-61
2023/07/31 14:30:50;;;;;;;3.97;2.20;;;;;;;;;;5087932;28;20052;-63
2023/07/31 14:33:18;;;;;;;3.15;2.00;;;;;;;;;;5083574;28;20393;-63
2023/07/31 14:35:44;;;;;;;3.60;2.25;;;;;;;;;;5078109;28;20044;-63
2023/07/31 14:38:11;;;;;;;4.40;2.55;;;;;;;;;;5083035;28;20063;-63
2023/07/31 14:40:38;;;;;;;5.00;2.70;;;;;;;;;;5080813;28;20055;-63
2023/07/31 14:43:05;;;;;;;3.60;2.28;;;;;;;;;;5081900;28;20055;-63
2023/07/31 14:45:32;;;;;;;3.47;2.00;;;;;;;;;;5081550;28;20057;-62
2023/07/31 14:47:59;;;;;;;3.55;2.55;;;;;;;;;;5081755;28;20060;-62
2023/07/31 14:50:27;;;;;;;4.63;2.63;;;;;;;;;;5083995;28;20056;-62
2023/07/31 14:52:54;;;;;;;4.73;2.33;;;;;;;;;;5082654;28;21833;-62